createdAt,value
2022-10-01T08:47:50.342Z,15.80
2022-10-01T08:50:30.030Z,15.71
2022-10-01T08:53:02.916Z,15.65
2022-10-01T08:55:36.634Z,15.67
2022-10-01T08:58:07.128Z,15.64
2022-10-01T09:00:40.165Z,15.66
2022-10-01T09:03:14.697Z,15.64
2022-10-01T09:05:55.262Z,15.62
2022-10-01T09:08:44.713Z,15.66
2022-10-01T09:11:25.002Z,15.67
2022-10-01T09:14:15.137Z,15.68
2022-10-01T09:16:53.500Z,15.68
2022-10-01T09:19:46.080Z,15.69
2022-10-01T09:22:26.299Z,15.70
2022-10-01T09:25:02.644Z,15.71
2022-10-01T09:27:32.534Z,15.67
2022-10-01T09:30:04.037Z,15.70
2022-10-01T09:32:38.038Z,15.70
2022-10-01T09:35:22.232Z,15.73
2022-10-01T09:37:56.194Z,15.72
2022-10-01T09:40:34.720Z,15.73
2022-10-01T09:43:03.922Z,15.75
2022-10-01T09:45:32.653Z,15.75
2022-10-01T09:48:15.810Z,15.75
2022-10-01T09:50:59.147Z,15.77
2022-10-01T09:53:34.964Z,15.73
2022-10-01T09:56:11.615Z,15.73
2022-10-01T09:58:43.463Z,15.74
2022-10-01T10:01:21.950Z,15.76
2022-10-01T10:03:58.249Z,15.74
2022-10-01T10:06:33.115Z,15.75
2022-10-01T10:09:03.342Z,15.75
2022-10-01T10:11:33.449Z,15.78
2022-10-01T10:14:04.698Z,15.80
2022-10-01T10:16:36.076Z,15.85
2022-10-01T10:19:09.750Z,15.90
2022-10-01T10:21:39.492Z,15.91
2022-10-01T10:24:24.582Z,15.98
2022-10-01T10:26:56.311Z,16.00
2022-10-01T10:29:31.145Z,16.07
2022-10-01T10:32:00.884Z,16.08
2022-10-01T10:34:33.956Z,16.07
2022-10-01T10:37:07.313Z,16.11
2022-10-01T10:39:38.866Z,16.09
2022-10-01T10:42:08.818Z,16.07
2022-10-01T10:44:40.275Z,16.08
2022-10-01T10:47:11.863Z,16.10
2022-10-01T10:49:46.346Z,16.12
2022-10-01T10:52:30.123Z,16.12
2022-10-01T10:55:00.583Z,16.11
2022-10-01T10:57:31.050Z,16.14
2022-10-01T11:00:01.602Z,16.16
2022-10-01T11:02:33.830Z,16.17
2022-10-01T11:05:06.879Z,16.12
2022-10-01T11:07:36.773Z,16.13
2022-10-01T11:10:24.886Z,16.18
2022-10-01T11:13:18.716Z,16.21
2022-10-01T11:16:19.766Z,16.26
2022-10-01T11:18:58.554Z,16.26
2022-10-01T11:21:40.587Z,16.20
2022-10-01T11:24:26.867Z,16.17
2022-10-01T11:26:59.325Z,16.13
2022-10-01T11:29:43.211Z,16.19
2022-10-01T11:32:23.527Z,16.20
2022-10-01T11:35:05.669Z,16.22
2022-10-01T11:37:50.739Z,16.22
2022-10-01T11:40:25.699Z,16.21
2022-10-01T11:42:58.541Z,16.16
2022-10-01T11:45:33.160Z,16.14
2022-10-01T11:48:06.451Z,16.22
2022-10-01T11:50:42.004Z,16.25
2022-10-01T11:53:16.806Z,16.29
2022-10-01T11:56:10.575Z,16.29
2022-10-01T11:58:53.217Z,16.32
2022-10-01T12:01:31.421Z,16.34
2022-10-01T12:04:07.549Z,16.41
2022-10-01T12:06:41.978Z,16.45
2022-10-01T12:09:18.820Z,16.51
2022-10-01T12:11:55.737Z,16.58
2022-10-01T12:14:26.152Z,16.61
2022-10-01T12:16:59.716Z,16.65
2022-10-01T12:19:32.469Z,16.72
2022-10-01T12:22:08.317Z,16.75
2022-10-01T12:24:41.367Z,16.78
2022-10-01T12:27:40.031Z,16.79
2022-10-01T12:30:13.901Z,16.77
2022-10-01T12:32:58.193Z,16.78
2022-10-01T12:35:39.984Z,16.77
2022-10-01T12:38:18.790Z,16.73
2022-10-01T12:40:52.501Z,16.73
2022-10-01T12:43:39.498Z,16.74
2022-10-01T12:46:17.506Z,16.71
2022-10-01T12:48:58.211Z,16.69
2022-10-01T12:51:40.246Z,16.71
2022-10-01T12:54:37.706Z,16.76
2022-10-01T12:57:19.865Z,16.78
2022-10-01T13:00:03.918Z,16.72
2022-10-01T13:03:14.334Z,16.77
2022-10-01T13:05:57.980Z,16.77
2022-10-01T13:08:40.130Z,16.82
2022-10-01T13:11:25.483Z,16.85
2022-10-01T13:13:55.997Z,16.83
2022-10-01T13:16:33.758Z,16.88
2022-10-01T13:19:08.439Z,16.92
2022-10-01T13:21:53.820Z,16.97
2022-10-01T13:24:30.990Z,17.01
2022-10-01T13:27:03.640Z,17.05
2022-10-01T13:29:48.198Z,17.08
2022-10-01T13:32:30.517Z,17.09
2022-10-01T13:35:01.057Z,17.06
2022-10-01T13:37:35.848Z,17.07
2022-10-01T13:40:05.929Z,17.04
2022-10-01T13:42:43.511Z,17.04
2022-10-01T13:45:25.700Z,17.06
2022-10-01T13:48:05.922Z,17.11
2022-10-01T13:50:34.659Z,17.12
2022-10-01T13:53:09.585Z,17.11
2022-10-01T13:55:43.071Z,17.13
2022-10-01T13:58:24.310Z,17.13
2022-10-01T14:00:54.546Z,17.10
2022-10-01T14:03:39.136Z,17.12
2022-10-01T14:06:10.144Z,17.15
2022-10-01T14:08:44.138Z,17.18
2022-10-01T14:11:34.429Z,17.16
2022-10-01T14:14:30.273Z,17.17
2022-10-01T14:17:01.587Z,17.18
2022-10-01T14:19:32.432Z,17.20
2022-10-01T14:22:15.446Z,17.21
2022-10-01T14:25:01.904Z,17.22
2022-10-01T14:27:38.328Z,17.23
2022-10-01T14:30:12.215Z,17.23
2022-10-01T14:32:58.248Z,17.24
2022-10-01T14:35:36.721Z,17.24
2022-10-01T14:38:12.996Z,17.27
2022-10-01T14:40:43.624Z,17.28
2022-10-01T14:43:19.442Z,17.30
2022-10-01T14:45:56.423Z,17.28
2022-10-01T14:48:26.183Z,17.28
2022-10-01T14:50:58.271Z,17.27
2022-10-01T14:53:29.592Z,17.24
2022-10-01T14:56:02.926Z,17.23
2022-10-01T14:58:35.255Z,17.23
2022-10-01T15:01:03.667Z,17.20
2022-10-01T15:03:39.421Z,17.21
2022-10-01T15:06:13.921Z,17.21
2022-10-01T15:08:44.146Z,17.23
2022-10-01T15:11:17.600Z,17.23
2022-10-01T15:13:48.257Z,17.22
2022-10-01T15:16:19.339Z,17.23
2022-10-01T15:18:53.467Z,17.22
2022-10-01T15:21:28.389Z,17.21
2022-10-01T15:23:58.088Z,17.19
2022-10-01T15:26:29.884Z,17.18
2022-10-01T15:29:05.963Z,17.17
2022-10-01T15:31:35.452Z,17.16
2022-10-01T15:34:04.766Z,17.14
2022-10-01T15:36:37.303Z,17.15
2022-10-01T15:39:22.949Z,17.12
2022-10-01T15:41:52.972Z,17.10
2022-10-01T15:44:41.151Z,17.07
2022-10-01T15:47:26.587Z,17.00
2022-10-01T15:50:07.882Z,16.97
2022-10-01T15:52:52.564Z,16.95
2022-10-01T15:55:25.068Z,16.95
2022-10-01T15:57:57.414Z,16.95
2022-10-01T16:00:28.029Z,16.93
2022-10-01T16:02:58.517Z,16.94
2022-10-01T16:05:30.604Z,16.94
2022-10-01T16:08:00.443Z,16.89
2022-10-01T16:10:37.473Z,16.91
2022-10-01T16:13:30.686Z,16.89
2022-10-01T16:16:09.089Z,16.85
2022-10-01T16:18:38.545Z,16.81
2022-10-01T16:21:09.281Z,16.83
2022-10-01T16:23:42.979Z,16.83
2022-10-01T16:26:47.123Z,16.80
2022-10-01T16:29:23.381Z,16.79
2022-10-01T16:31:52.141Z,16.76
2022-10-01T16:34:21.846Z,16.73
2022-10-01T16:36:50.410Z,16.71
2022-10-01T16:39:20.145Z,16.69
2022-10-01T16:42:01.670Z,16.66
2022-10-01T16:44:39.480Z,16.60
2022-10-01T16:47:07.781Z,16.55
2022-10-01T16:49:36.161Z,16.56
2022-10-01T16:52:04.912Z,16.58
2022-10-01T16:54:35.317Z,16.57
2022-10-01T16:57:03.669Z,16.54
2022-10-01T16:59:33.933Z,16.56
2022-10-01T17:02:02.520Z,16.56
2022-10-01T17:04:34.092Z,16.60
2022-10-01T17:07:02.945Z,16.61
2022-10-01T17:09:31.420Z,16.60
2022-10-01T17:12:01.928Z,16.59
2022-10-01T17:14:30.406Z,16.59
2022-10-01T17:16:58.801Z,16.54
2022-10-01T17:19:27.195Z,16.54
2022-10-01T17:21:55.990Z,16.51
2022-10-01T17:24:24.434Z,16.53
2022-10-01T17:26:52.879Z,16.54
2022-10-01T17:29:22.602Z,16.50
2022-10-01T17:31:53.436Z,16.49
2022-10-01T17:34:22.180Z,16.50
2022-10-01T17:36:50.489Z,16.50
2022-10-01T17:39:18.811Z,16.47
2022-10-01T17:41:47.314Z,16.49
2022-10-01T17:44:15.808Z,16.48
2022-10-01T17:46:45.561Z,16.45
2022-10-01T17:49:14.740Z,16.44
2022-10-01T17:51:43.065Z,16.43
2022-10-01T17:54:11.504Z,16.41
2022-10-01T17:56:42.024Z,16.41
2022-10-01T17:59:10.380Z,16.41
2022-10-01T18:01:41.730Z,16.37
2022-10-01T18:04:13.160Z,16.33
2022-10-01T18:06:43.860Z,16.34
2022-10-01T18:09:12.210Z,16.31
2022-10-01T18:11:40.787Z,16.29
2022-10-01T18:14:09.165Z,16.31
2022-10-01T18:16:38.006Z,16.25
2022-10-01T18:21:57.078Z,16.19
2022-10-01T18:24:26.168Z,16.22
2022-10-01T18:26:54.758Z,16.24
2022-10-01T18:29:25.282Z,16.24
2022-10-01T18:31:56.083Z,16.21
2022-10-01T18:34:32.660Z,16.25
2022-10-01T18:37:07.461Z,16.26
2022-10-01T18:39:41.952Z,16.28
2022-10-01T18:42:19.612Z,16.27
2022-10-01T18:44:53.443Z,16.30
2022-10-01T18:47:32.602Z,16.24
2022-10-01T18:50:33.102Z,16.21
2022-10-01T18:53:20.292Z,16.11
2022-10-01T18:56:11.601Z,15.99
2022-10-01T18:59:01.256Z,15.82
2022-10-01T19:01:41.728Z,15.83
2022-10-01T19:04:37.469Z,15.97
2022-10-01T19:07:22.484Z,15.99
2022-10-01T19:10:05.851Z,16.06
2022-10-01T19:12:49.020Z,16.04
2022-10-01T19:15:27.136Z,16.03
2022-10-01T19:18:07.007Z,16.02
2022-10-01T19:20:55.226Z,15.98
2022-10-01T19:23:41.767Z,15.98
2022-10-01T19:26:17.905Z,15.91
2022-10-01T19:29:00.654Z,15.94
2022-10-01T19:31:40.424Z,15.92
2022-10-01T19:34:14.135Z,15.85
2022-10-01T19:36:51.576Z,15.88
2022-10-01T19:39:24.123Z,15.91
2022-10-01T19:41:58.707Z,15.85
2022-10-01T19:44:33.090Z,15.87
2022-10-01T19:47:15.888Z,15.80
2022-10-01T19:49:46.381Z,15.77
2022-10-01T19:52:18.319Z,15.74
2022-10-01T19:54:52.769Z,15.73
2022-10-01T19:57:25.836Z,15.73
2022-10-01T19:59:57.084Z,15.75
2022-10-01T20:02:35.369Z,15.72
2022-10-01T20:05:07.198Z,15.71
2022-10-01T20:07:43.413Z,15.74
2022-10-01T20:10:20.724Z,15.76
2022-10-01T20:13:03.903Z,15.76
2022-10-01T20:15:43.695Z,15.78
2022-10-01T20:18:27.991Z,15.78
2022-10-01T20:21:15.327Z,15.81
2022-10-01T20:23:50.328Z,15.85
2022-10-01T20:26:26.832Z,15.84
2022-10-01T20:29:13.566Z,15.87
2022-10-01T20:31:48.931Z,15.81
2022-10-01T20:34:27.583Z,15.80
2022-10-01T20:37:09.675Z,15.84
2022-10-01T20:39:42.990Z,15.82
2022-10-01T20:42:18.993Z,15.81
2022-10-01T20:44:49.109Z,15.78
2022-10-01T20:47:24.874Z,15.78
2022-10-01T20:50:04.785Z,15.79
2022-10-01T20:52:42.654Z,15.83
2022-10-01T20:55:15.747Z,15.88
2022-10-01T20:57:50.533Z,15.83
2022-10-01T21:00:23.423Z,15.80
2022-10-01T21:02:58.487Z,15.67
2022-10-01T21:05:30.578Z,15.74
2022-10-01T21:08:04.437Z,15.70
2022-10-01T21:10:39.826Z,15.73
2022-10-01T21:13:16.091Z,15.71
2022-10-01T21:15:56.202Z,15.74
2022-10-01T21:18:35.561Z,15.74
2022-10-01T21:21:16.517Z,15.78
2022-10-01T21:24:03.049Z,15.79
2022-10-01T21:26:41.541Z,15.81
2022-10-01T21:29:26.722Z,15.79
2022-10-01T21:32:12.729Z,15.79
2022-10-01T21:34:58.166Z,15.82
2022-10-01T21:37:32.641Z,15.82
2022-10-01T21:40:08.913Z,15.83
2022-10-01T21:42:50.531Z,15.79
2022-10-01T21:45:29.045Z,15.83
2022-10-01T21:48:16.275Z,15.84
2022-10-01T21:50:53.101Z,15.88
2022-10-01T21:53:41.181Z,15.85
2022-10-01T21:56:37.570Z,15.88
2022-10-01T21:59:11.784Z,15.91
2022-10-01T22:02:01.758Z,15.86
2022-10-01T22:04:39.982Z,15.89
2022-10-01T22:07:18.116Z,15.93
2022-10-01T22:09:58.206Z,15.96
2022-10-01T22:12:28.862Z,15.99
2022-10-01T22:14:59.362Z,15.99
2022-10-01T22:17:32.640Z,16.01
2022-10-01T22:20:06.459Z,15.97
2022-10-01T22:22:38.893Z,16.02
2022-10-01T22:25:09.865Z,15.92
2022-10-01T22:27:44.351Z,15.92
2022-10-01T22:30:17.137Z,15.98
2022-10-01T22:32:50.315Z,15.99
2022-10-01T22:35:26.082Z,15.90
2022-10-01T22:37:59.978Z,15.93
2022-10-01T22:40:33.650Z,15.82
2022-10-01T22:43:07.041Z,15.85
2022-10-01T22:45:50.517Z,15.91
2022-10-01T22:48:35.344Z,15.81
2022-10-01T22:51:22.826Z,15.82
2022-10-01T22:53:57.949Z,15.81
2022-10-01T22:56:39.208Z,15.64
2022-10-01T22:59:17.707Z,15.60
2022-10-01T23:01:57.027Z,15.60
2022-10-01T23:04:39.100Z,15.63
2022-10-01T23:07:17.845Z,15.56
2022-10-01T23:09:52.056Z,15.44
2022-10-01T23:12:26.816Z,15.45
2022-10-01T23:15:05.719Z,15.45
2022-10-01T23:17:41.522Z,15.48
2022-10-01T23:20:22.788Z,15.50
2022-10-01T23:23:20.147Z,15.36
2022-10-01T23:26:10.385Z,15.44
2022-10-01T23:28:50.305Z,15.44
2022-10-01T23:31:32.867Z,15.41
2022-10-01T23:34:14.183Z,15.48
2022-10-01T23:36:48.198Z,15.45
2022-10-01T23:39:46.552Z,15.45
2022-10-01T23:42:34.620Z,15.41
2022-10-01T23:45:17.438Z,15.33
2022-10-01T23:47:51.342Z,15.31
2022-10-01T23:50:24.739Z,15.31
2022-10-01T23:53:03.137Z,15.33
2022-10-01T23:56:01.377Z,15.18
2022-10-01T23:58:34.670Z,15.17
